Columbia, New Hampshire
Current Conditions -  °F | °C
As of 9:52 PM on Wednesday 22 Oct 2014 (Local Time) from KBML Reporting Station
Overcast Overcast  
Wind Chill: 41°   Ceiling: 1800
Heat Index: 46°   Visibility: 10mi
Dew Point: 43°   Wind: 10mph
Humidity: 89%   Direction: 340°NNW
Pressure: 30.09"   Gusts: NA
Location:  44.7189°N, 71.4659°W
Report Text: KBML 230152Z AUTO 34009KT 10SM OVC018 08/06 A3009 RMK AO2 SLP197 T00780061
Loading
Personal Weather Stations






























Interactive Weather Map
Tropical Storm Tracking
New forecast layout! Learn more

10-Day Weather Forecast

Advertisements
Track Severe Weather on mobile